Time;durP1;ratioP1;P1;durP2;ratioP2;P2;SDS_P1;SDS_P2;PMS_P1;PMS_P2;Temp;Humidity;BMP_temperature;BMP_pressure;BME280_temperature;BME280_humidity;BME280_pressure;Samples;Min_cycle;Max_cycle;Signal;HPM_P1;HPM_P2
2024/03/01 00:00:28;;;;;;;12.75;9.05;;;;;;;;;;4993869;28;20324;-85
2024/03/01 00:02:54;;;;;;;13.50;8.60;;;;;;;;;;4997236;28;20607;-85
2024/03/01 00:05:20;;;;;;;15.23;9.27;;;;;;;;;;4997916;28;20432;-86
2024/03/01 00:07:46;;;;;;;14.38;8.90;;;;;;;;;;4994448;28;20561;-84
2024/03/01 00:10:12;;;;;;;15.02;9.32;;;;;;;;;;4997369;28;20207;-85
2024/03/01 00:12:38;;;;;;;14.52;9.50;;;;;;;;;;4993065;28;20188;-84
2024/03/01 00:15:05;;;;;;;13.40;9.18;;;;;;;;;;4981291;28;20179;-85
2024/03/01 00:17:30;;;;;;;14.93;9.77;;;;;;;;;;4992735;28;20631;-85
2024/03/01 00:19:57;;;;;;;14.13;8.90;;;;;;;;;;4993030;28;20178;-84
2024/03/01 00:22:23;;;;;;;14.40;10.00;;;;;;;;;;4994040;28;20503;-85
2024/03/01 00:24:49;;;;;;;16.80;10.03;;;;;;;;;;4994436;28;20218;-86
2024/03/01 00:27:15;;;;;;;12.00;8.80;;;;;;;;;;4992284;28;20427;-86
2024/03/01 00:29:41;;;;;;;16.50;10.27;;;;;;;;;;4996966;28;20449;-87
2024/03/01 00:32:07;;;;;;;17.97;11.07;;;;;;;;;;4993580;28;20923;-86
2024/03/01 00:34:33;;;;;;;18.42;10.68;;;;;;;;;;4991518;28;20837;-87
2024/03/01 00:36:59;;;;;;;16.43;9.53;;;;;;;;;;4996811;28;20178;-86
2024/03/01 00:39:26;;;;;;;18.33;10.10;;;;;;;;;;4976419;28;20443;-86
2024/03/01 00:41:52;;;;;;;18.05;11.10;;;;;;;;;;4994101;28;20264;-87
2024/03/01 00:44:18;;;;;;;15.75;10.70;;;;;;;;;;4994686;28;20246;-87
2024/03/01 00:46:43;;;;;;;17.63;11.30;;;;;;;;;;4994529;28;20596;-86
2024/03/01 00:49:10;;;;;;;19.43;10.67;;;;;;;;;;4994359;28;20529;-86
2024/03/01 00:51:36;;;;;;;17.10;11.60;;;;;;;;;;4995665;28;20421;-87
2024/03/01 00:54:02;;;;;;;17.05;9.32;;;;;;;;;;4994430;28;20178;-86
2024/03/01 00:56:28;;;;;;;15.40;11.30;;;;;;;;;;4998136;28;20669;-87
2024/03/01 00:58:54;;;;;;;17.53;10.60;;;;;;;;;;4974576;28;20478;-85
2024/03/01 01:01:20;;;;;;;19.17;11.10;;;;;;;;;;5006786;28;20431;-85
2024/03/01 01:03:46;;;;;;;16.83;11.13;;;;;;;;;;5002100;28;20946;-86
2024/03/01 01:06:12;;;;;;;16.03;10.93;;;;;;;;;;4994935;28;20488;-86
2024/03/01 01:08:38;;;;;;;14.23;9.53;;;;;;;;;;4983398;28;20441;-86
2024/03/01 01:11:05;;;;;;;17.85;10.65;;;;;;;;;;4998797;28;20490;-86
2024/03/01 01:13:31;;;;;;;14.25;9.90;;;;;;;;;;4995407;28;20195;-87
2024/03/01 01:15:57;;;;;;;15.40;10.38;;;;;;;;;;5002115;28;20266;-86
2024/03/01 01:18:23;;;;;;;16.33;10.93;;;;;;;;;;4987944;28;20647;-86
2024/03/01 01:20:49;;;;;;;23.25;11.35;;;;;;;;;;4991782;28;20528;-87
2024/03/01 01:23:15;;;;;;;14.20;9.93;;;;;;;;;;4995423;28;20191;-86
2024/03/01 01:25:44;;;;;;;16.52;10.27;;;;;;;;;;5000908;28;20286;-87
2024/03/01 01:28:10;;;;;;;17.52;10.40;;;;;;;;;;4995517;28;20205;-86
2024/03/01 01:30:37;;;;;;;16.02;10.45;;;;;;;;;;4996571;28;20270;-83
2024/03/01 01:33:03;;;;;;;15.25;10.40;;;;;;;;;;4997458;28;20182;-84
2024/03/01 01:35:29;;;;;;;18.25;11.38;;;;;;;;;;4987574;28;20182;-85
2024/03/01 01:37:57;;;;;;;15.80;9.90;;;;;;;;;;4981726;28;20214;-86
2024/03/01 01:40:23;;;;;;;18.38;10.43;;;;;;;;;;4987223;28;20470;-86
2024/03/01 01:42:52;;;;;;;16.00;10.20;;;;;;;;;;4999196;28;20183;-87
2024/03/01 01:45:18;;;;;;;14.23;9.90;;;;;;;;;;5000374;28;20187;-86
2024/03/01 01:47:48;;;;;;;13.88;9.65;;;;;;;;;;5001679;28;20264;-86
2024/03/01 01:50:14;;;;;;;14.63;10.73;;;;;;;;;;5001638;28;20180;-87
2024/03/01 01:52:41;;;;;;;13.70;8.48;;;;;;;;;;4981765;28;20179;-87
2024/03/01 01:55:07;;;;;;;15.07;11.25;;;;;;;;;;4978952;28;20230;-86
2024/03/01 01:57:33;;;;;;;15.52;10.50;;;;;;;;;;4983031;28;20284;-86
2024/03/01 01:59:59;;;;;;;14.32;9.93;;;;;;;;;;5000059;28;20188;-85
2024/03/01 02:02:25;;;;;;;14.60;10.07;;;;;;;;;;4999373;28;20211;-86
2024/03/01 02:04:51;;;;;;;13.73;10.50;;;;;;;;;;4994635;28;20423;-87
2024/03/01 02:07:17;;;;;;;14.57;10.50;;;;;;;;;;4979860;28;20243;-85
2024/03/01 02:09:45;;;;;;;14.85;10.75;;;;;;;;;;4995954;28;20446;-87
2024/03/01 02:12:13;;;;;;;11.07;8.48;;;;;;;;;;4997061;28;20590;-86
2024/03/01 02:14:39;;;;;;;16.83;8.90;;;;;;;;;;4994842;28;20187;-83
2024/03/01 02:17:05;;;;;;;15.40;10.13;;;;;;;;;;4979136;28;20623;-85
2024/03/01 02:19:31;;;;;;;15.70;10.50;;;;;;;;;;4996488;28;20438;-86
2024/03/01 02:22:02;;;;;;;12.73;9.02;;;;;;;;;;4979327;28;20191;-86
2024/03/01 02:24:28;;;;;;;14.02;9.35;;;;;;;;;;4984754;28;20179;-86
2024/03/01 02:26:57;;;;;;;17.83;10.02;;;;;;;;;;4997534;28;20702;-86
2024/03/01 02:29:23;;;;;;;17.63;10.88;;;;;;;;;;4970762;28;20230;-86
2024/03/01 02:31:49;;;;;;;15.93;9.87;;;;;;;;;;5002838;28;20617;-86
2024/03/01 02:34:15;;;;;;;14.55;10.07;;;;;;;;;;4996605;28;20514;-86
2024/03/01 02:36:41;;;;;;;13.30;8.83;;;;;;;;;;4999882;28;20188;-85
2024/03/01 02:39:16;;;;;;;14.87;9.33;;;;;;;;;;4990529;28;21057;-86
2024/03/01 02:41:43;;;;;;;15.75;9.90;;;;;;;;;;4999026;28;20451;-86
2024/03/01 02:44:09;;;;;;;15.30;9.50;;;;;;;;;;4997279;28;20585;-86
2024/03/01 02:46:35;;;;;;;15.47;10.33;;;;;;;;;;4995552;28;20187;-86
2024/03/01 02:49:02;;;;;;;14.68;10.57;;;;;;;;;;4994990;28;21018;-86
2024/03/01 02:51:28;;;;;;;19.50;9.82;;;;;;;;;;4996330;28;20189;-87
2024/03/01 02:53:55;;;;;;;12.85;8.63;;;;;;;;;;4997436;28;20683;-86
2024/03/01 02:56:21;;;;;;;12.27;8.75;;;;;;;;;;4994690;28;20190;-87
2024/03/01 02:58:47;;;;;;;16.60;9.77;;;;;;;;;;4995357;28;20206;-85
2024/03/01 03:01:14;;;;;;;14.02;9.75;;;;;;;;;;4984504;28;20657;-87
2024/03/01 03:03:40;;;;;;;13.20;9.30;;;;;;;;;;4993958;28;20191;-87
2024/03/01 03:06:06;;;;;;;14.70;9.87;;;;;;;;;;4994474;28;20202;-86
2024/03/01 03:08:32;;;;;;;14.40;9.40;;;;;;;;;;4996733;28;20462;-85
2024/03/01 03:10:58;;;;;;;14.77;8.97;;;;;;;;;;4997320;28;20438;-84
2024/03/01 03:13:24;;;;;;;10.07;7.73;;;;;;;;;;4996972;28;20439;-86
2024/03/01 03:15:50;;;;;;;12.13;7.47;;;;;;;;;;4999782;28;21040;-86
2024/03/01 03:18:16;;;;;;;13.20;8.70;;;;;;;;;;4993206;28;20207;-85
2024/03/01 03:20:42;;;;;;;14.18;9.02;;;;;;;;;;4995710;28;20315;-83
2024/03/01 03:23:08;;;;;;;13.03;8.80;;;;;;;;;;5006566;28;20730;-84
2024/03/01 03:25:36;;;;;;;12.75;8.27;;;;;;;;;;4999957;28;20466;-84
2024/03/01 03:28:02;;;;;;;13.88;8.15;;;;;;;;;;4994302;28;20184;-85
2024/03/01 03:30:28;;;;;;;12.45;7.35;;;;;;;;;;4995762;28;20191;-85
2024/03/01 03:32:54;;;;;;;11.48;7.38;;;;;;;;;;4994604;28;20186;-85
2024/03/01 03:35:20;;;;;;;14.35;7.47;;;;;;;;;;4994241;28;20722;-85
2024/03/01 03:37:46;;;;;;;9.83;7.30;;;;;;;;;;4982518;28;20236;-85
2024/03/01 03:40:15;;;;;;;11.27;8.70;;;;;;;;;;4979535;28;20445;-85
2024/03/01 03:42:42;;;;;;;10.90;7.28;;;;;;;;;;5003214;28;20529;-86
2024/03/01 03:45:09;;;;;;;11.18;7.75;;;;;;;;;;4995810;28;20258;-86
2024/03/01 03:47:36;;;;;;;12.07;7.15;;;;;;;;;;5000631;28;20341;-86
2024/03/01 03:50:09;;;;;;;10.63;7.65;;;;;;;;;;4997800;28;20537;-84
2024/03/01 03:52:35;;;;;;;11.48;7.60;;;;;;;;;;4995351;28;20636;-86
2024/03/01 03:55:04;;;;;;;11.68;7.95;;;;;;;;;;4992976;28;20191;-85
2024/03/01 03:57:31;;;;;;;12.43;8.57;;;;;;;;;;4993628;28;20207;-86
2024/03/01 03:59:57;;;;;;;12.10;7.43;;;;;;;;;;4995067;28;20195;-86
2024/03/01 04:02:23;;;;;;;13.10;8.87;;;;;;;;;;4993876;28;20191;-86
2024/03/01 04:04:49;;;;;;;10.07;7.80;;;;;;;;;;4994673;28;20427;-86
2024/03/01 04:07:15;;;;;;;12.97;8.33;;;;;;;;;;4992692;28;20470;-86
2024/03/01 04:09:41;;;;;;;12.50;8.27;;;;;;;;;;4983656;28;20501;-84
2024/03/01 04:12:07;;;;;;;14.10;8.30;;;;;;;;;;4978421;28;20798;-85
2024/03/01 04:14:33;;;;;;;12.20;8.50;;;;;;;;;;4977720;28;20462;-85
2024/03/01 04:17:00;;;;;;;12.25;7.97;;;;;;;;;;5004516;28;20635;-86
2024/03/01 04:19:26;;;;;;;11.80;7.50;;;;;;;;;;4993554;28;20212;-85
2024/03/01 04:21:52;;;;;;;10.40;7.68;;;;;;;;;;4994371;28;20187;-86
2024/03/01 04:24:18;;;;;;;9.13;6.90;;;;;;;;;;4993477;28;20234;-85
2024/03/01 04:26:44;;;;;;;9.32;6.88;;;;;;;;;;5000860;28;20486;-85
2024/03/01 04:29:10;;;;;;;10.97;7.17;;;;;;;;;;4985145;28;20190;-85
2024/03/01 04:31:38;;;;;;;10.70;8.03;;;;;;;;;;4998647;28;20838;-86
2024/03/01 04:34:05;;;;;;;9.65;7.10;;;;;;;;;;4995464;28;20432;-84
2024/03/01 04:36:32;;;;;;;9.45;6.85;;;;;;;;;;5003020;28;20181;-85
2024/03/01 04:38:58;;;;;;;9.32;7.05;;;;;;;;;;5006514;28;20246;-86
2024/03/01 04:41:24;;;;;;;12.30;7.70;;;;;;;;;;4984067;28;20195;-86
2024/03/01 04:43:50;;;;;;;8.85;6.82;;;;;;;;;;5009631;28;20452;-85
2024/03/01 04:46:16;;;;;;;9.63;6.27;;;;;;;;;;4998193;28;20688;-85
2024/03/01 04:48:42;;;;;;;9.52;6.07;;;;;;;;;;4997942;28;20418;-86
2024/03/01 04:51:14;;;;;;;9.70;6.57;;;;;;;;;;4980547;28;20697;-86
2024/03/01 04:53:41;;;;;;;9.77;7.45;;;;;;;;;;4997792;28;20455;-87
2024/03/01 04:56:08;;;;;;;9.75;6.70;;;;;;;;;;4997889;28;20188;-86
2024/03/01 04:58:34;;;;;;;14.15;8.90;;;;;;;;;;4977734;28;20676;-87
2024/03/01 05:01:00;;;;;;;12.47;7.23;;;;;;;;;;4999605;28;20205;-86
2024/03/01 05:03:30;;;;;;;12.43;6.80;;;;;;;;;;5001450;28;20422;-86
2024/03/01 05:05:59;;;;;;;12.07;7.57;;;;;;;;;;4996899;28;20913;-87
2024/03/01 05:08:25;;;;;;;9.65;7.20;;;;;;;;;;5000943;28;20175;-86
2024/03/01 05:10:51;;;;;;;11.38;6.75;;;;;;;;;;4996720;28;20254;-85
2024/03/01 05:13:18;;;;;;;10.37;7.23;;;;;;;;;;4982988;28;20191;-85
2024/03/01 05:15:45;;;;;;;10.43;7.30;;;;;;;;;;4996173;28;20518;-85
2024/03/01 05:18:11;;;;;;;10.10;7.15;;;;;;;;;;4997457;28;20772;-85
2024/03/01 05:20:37;;;;;;;9.90;6.90;;;;;;;;;;4999478;28;20213;-86
2024/03/01 05:23:03;;;;;;;11.65;7.85;;;;;;;;;;4994912;28;20550;-84
2024/03/01 05:25:29;;;;;;;11.02;7.25;;;;;;;;;;4982150;28;20180;-86
2024/03/01 05:27:55;;;;;;;9.90;6.93;;;;;;;;;;4996975;28;20250;-85
2024/03/01 05:30:23;;;;;;;9.93;7.40;;;;;;;;;;4997832;28;20427;-86
2024/03/01 05:32:50;;;;;;;9.70;6.90;;;;;;;;;;4989150;28;20426;-87
2024/03/01 05:35:17;;;;;;;8.57;6.50;;;;;;;;;;4984918;28;20278;-85
2024/03/01 05:37:43;;;;;;;10.00;7.15;;;;;;;;;;4998186;28;20199;-84
2024/03/01 05:40:14;;;;;;;8.50;6.65;;;;;;;;;;4979958;28;20199;-85
2024/03/01 05:42:44;;;;;;;11.38;7.47;;;;;;;;;;4984167;28;20199;-85
2024/03/01 05:45:10;;;;;;;9.77;6.20;;;;;;;;;;4981351;28;20650;-84
2024/03/01 05:47:36;;;;;;;6.22;3.75;;;;;;;;;;4997708;28;20175;-85
2024/03/01 05:50:06;;;;;;;4.13;2.85;;;;;;;;;;4997259;28;20199;-84
2024/03/01 05:52:32;;;;;;;6.78;2.70;;;;;;;;;;4965644;28;20282;-85
2024/03/01 05:54:59;;;;;;;7.43;2.08;;;;;;;;;;4997199;28;20189;-82
2024/03/01 05:57:25;;;;;;;2.47;1.83;;;;;;;;;;4996140;28;20233;-83
2024/03/01 05:59:51;;;;;;;2.30;1.90;;;;;;;;;;4997540;28;20180;-83
2024/03/01 06:02:17;;;;;;;2.90;2.00;;;;;;;;;;4995766;28;20185;-83
2024/03/01 06:04:43;;;;;;;4.20;1.55;;;;;;;;;;4980920;28;20189;-83
2024/03/01 06:07:10;;;;;;;1.52;1.42;;;;;;;;;;4993144;28;20238;-83
2024/03/01 06:09:36;;;;;;;2.45;1.50;;;;;;;;;;4979378;28;20251;-83
2024/03/01 06:12:02;;;;;;;1.45;1.30;;;;;;;;;;4984225;28;20179;-85
2024/03/01 06:14:28;;;;;;;1.60;1.33;;;;;;;;;;4979464;28;20552;-85
2024/03/01 06:16:54;;;;;;;1.77;1.50;;;;;;;;;;4979498;28;20438;-83
2024/03/01 06:19:20;;;;;;;2.87;1.50;;;;;;;;;;4971878;28;20213;-82
2024/03/01 06:21:46;;;;;;;3.85;1.77;;;;;;;;;;4990454;28;20443;-84
2024/03/01 06:24:13;;;;;;;2.03;1.50;;;;;;;;;;4997847;28;20193;-84
2024/03/01 06:26:39;;;;;;;5.50;1.50;;;;;;;;;;4997044;28;20203;-83
2024/03/01 06:29:05;;;;;;;1.17;1.08;;;;;;;;;;4996992;28;20210;-83
2024/03/01 06:31:31;;;;;;;1.40;1.10;;;;;;;;;;4996936;28;20222;-83
2024/03/01 06:33:57;;;;;;;1.30;1.20;;;;;;;;;;4991098;28;20270;-83
2024/03/01 06:36:23;;;;;;;3.25;1.60;;;;;;;;;;4995676;28;20477;-83
2024/03/01 06:38:49;;;;;;;7.70;1.77;;;;;;;;;;4996836;28;20211;-82
2024/03/01 06:41:15;;;;;;;1.87;1.33;;;;;;;;;;4999627;28;20418;-83
2024/03/01 06:43:41;;;;;;;5.33;1.97;;;;;;;;;;5001199;28;20938;-84
2024/03/01 06:46:07;;;;;;;2.95;1.65;;;;;;;;;;4996127;28;20423;-84
2024/03/01 06:48:34;;;;;;;3.20;1.70;;;;;;;;;;4996426;28;20674;-83
2024/03/01 06:51:00;;;;;;;1.52;1.42;;;;;;;;;;4995858;28;20435;-83
2024/03/01 06:53:28;;;;;;;9.43;1.70;;;;;;;;;;5000490;28;20211;-84
2024/03/01 06:55:57;;;;;;;2.60;2.40;;;;;;;;;;4995873;28;20185;-84
2024/03/01 06:58:23;;;;;;;4.15;2.85;;;;;;;;;;4996258;28;20218;-83
2024/03/01 07:00:49;;;;;;;3.27;2.50;;;;;;;;;;4982853;28;20204;-84
2024/03/01 07:03:15;;;;;;;4.53;2.60;;;;;;;;;;5003646;28;20466;-83
2024/03/01 07:05:41;;;;;;;5.78;2.38;;;;;;;;;;4996697;28;20481;-83
2024/03/01 07:08:08;;;;;;;3.42;2.00;;;;;;;;;;4995387;28;20231;-83
2024/03/01 07:10:34;;;;;;;12.63;2.42;;;;;;;;;;4996169;28;20242;-84
2024/03/01 07:13:00;;;;;;;3.50;2.25;;;;;;;;;;4995874;28;20275;-82
2024/03/01 07:15:27;;;;;;;3.00;2.03;;;;;;;;;;4998521;28;20222;-83
2024/03/01 07:17:53;;;;;;;2.42;1.98;;;;;;;;;;4995322;28;20462;-82
2024/03/01 07:20:19;;;;;;;3.63;2.10;;;;;;;;;;4994933;28;20203;-83
2024/03/01 07:22:47;;;;;;;3.78;2.40;;;;;;;;;;5004316;28;20543;-83
2024/03/01 07:25:14;;;;;;;2.30;2.00;;;;;;;;;;4997331;28;20183;-83
2024/03/01 07:27:41;;;;;;;3.75;2.10;;;;;;;;;;4999601;28;20627;-83
2024/03/01 07:30:07;;;;;;;5.20;2.38;;;;;;;;;;4992025;28;20183;-83
2024/03/01 07:32:36;;;;;;;3.90;2.33;;;;;;;;;;4996891;28;20175;-83
2024/03/01 07:35:05;;;;;;;3.00;2.20;;;;;;;;;;4997104;28;20182;-82
2024/03/01 07:37:32;;;;;;;2.63;1.90;;;;;;;;;;4998478;28;20190;-83
2024/03/01 07:39:58;;;;;;;2.15;1.77;;;;;;;;;;4997111;28;20175;-83
2024/03/01 07:42:24;;;;;;;1.73;1.63;;;;;;;;;;4996232;28;20184;-83
2024/03/01 07:44:50;;;;;;;4.45;2.05;;;;;;;;;;4995621;28;20218;-83
2024/03/01 07:47:16;;;;;;;3.00;1.67;;;;;;;;;;4996236;28;20179;-83
2024/03/01 07:49:42;;;;;;;4.80;1.92;;;;;;;;;;5000235;28;20193;-83
2024/03/01 07:52:08;;;;;;;2.77;1.90;;;;;;;;;;4992809;28;20196;-83
2024/03/01 07:54:34;;;;;;;4.32;2.17;;;;;;;;;;4996582;28;20830;-83
2024/03/01 07:57:00;;;;;;;5.40;2.33;;;;;;;;;;5006580;28;20182;-83
2024/03/01 07:59:27;;;;;;;2.22;2.03;;;;;;;;;;4994389;28;20199;-83
2024/03/01 08:01:53;;;;;;;3.13;2.17;;;;;;;;;;4997697;28;20274;-83
2024/03/01 08:04:19;;;;;;;4.93;2.65;;;;;;;;;;5005268;28;20186;-83
2024/03/01 08:06:45;;;;;;;4.57;2.28;;;;;;;;;;5003096;28;20309;-83
2024/03/01 08:09:18;;;;;;;8.43;2.80;;;;;;;;;;4985712;28;20194;-82
2024/03/01 08:11:45;;;;;;;3.50;2.35;;;;;;;;;;5001729;28;20190;-83
2024/03/01 08:14:30;;;;;;;2.75;2.42;;;;;;;;;;4992319;28;20191;-83
2024/03/01 08:16:57;;;;;;;4.00;2.13;;;;;;;;;;5002327;28;20183;-83
2024/03/01 08:19:44;;;;;;;2.10;1.90;;;;;;;;;;5005035;28;20290;-83
2024/03/01 08:22:14;;;;;;;3.42;1.83;;;;;;;;;;5003362;28;20183;-83
2024/03/01 08:24:41;;;;;;;3.13;1.80;;;;;;;;;;5003925;28;20187;-83
2024/03/01 08:27:08;;;;;;;2.47;1.80;;;;;;;;;;5008657;28;20584;-83
2024/03/01 08:29:35;;;;;;;2.10;1.85;;;;;;;;;;5002601;28;20190;-83
2024/03/01 08:32:01;;;;;;;2.40;2.20;;;;;;;;;;5000938;28;20613;-82
2024/03/01 08:34:34;;;;;;;2.67;2.20;;;;;;;;;;5003147;28;20206;-83
2024/03/01 08:37:00;;;;;;;2.53;2.20;;;;;;;;;;5004231;28;20184;-81
2024/03/01 08:39:27;;;;;;;2.47;1.73;;;;;;;;;;5001898;28;20207;-82
2024/03/01 08:41:54;;;;;;;2.55;1.90;;;;;;;;;;5001871;28;20438;-83
2024/03/01 08:44:26;;;;;;;3.40;1.80;;;;;;;;;;5001775;28;20189;-81
2024/03/01 08:46:53;;;;;;;1.70;1.60;;;;;;;;;;5008151;28;20179;-82
2024/03/01 08:49:37;;;;;;;1.58;1.48;;;;;;;;;;5000952;28;20183;-82
2024/03/01 08:52:06;;;;;;;2.75;1.60;;;;;;;;;;4998124;28;20184;-81
2024/03/01 08:54:32;;;;;;;2.05;1.65;;;;;;;;;;5002141;28;20179;-82
2024/03/01 08:57:20;;;;;;;1.92;1.45;;;;;;;;;;5002453;28;20644;-82
2024/03/01 08:59:47;;;;;;;2.40;1.65;;;;;;;;;;4997064;28;20206;-82
2024/03/01 09:02:34;;;;;;;1.55;1.20;;;;;;;;;;5002108;28;20176;-82
2024/03/01 09:04:59;;;;;;;1.30;1.20;;;;;;;;;;4989774;28;20215;-81
2024/03/01 09:07:31;;;;;;;1.70;1.00;;;;;;;;;;5001759;28;20250;-82
2024/03/01 09:09:57;;;;;;;1.85;1.15;;;;;;;;;;5001850;28;20411;-80
2024/03/01 09:12:25;;;;;;;1.40;1.00;;;;;;;;;;5002177;28;20198;-82
2024/03/01 09:14:53;;;;;;;1.50;0.90;;;;;;;;;;4998136;28;20171;-82
2024/03/01 09:17:19;;;;;;;0.90;0.80;;;;;;;;;;4998975;28;20175;-82
2024/03/01 09:19:48;;;;;;;2.08;1.27;;;;;;;;;;4998712;28;20184;-82
2024/03/01 09:22:16;;;;;;;1.10;1.00;;;;;;;;;;4996014;28;20195;-82
2024/03/01 09:24:43;;;;;;;1.00;0.70;;;;;;;;;;4982088;28;20187;-82
2024/03/01 09:27:11;;;;;;;1.75;0.80;;;;;;;;;;4998491;28;20182;-82
2024/03/01 09:29:37;;;;;;;1.55;0.90;;;;;;;;;;4998143;28;20269;-81
2024/03/01 09:32:04;;;;;;;1.50;0.90;;;;;;;;;;4998725;28;20171;-81
2024/03/01 09:34:34;;;;;;;1.00;0.70;;;;;;;;;;4997857;28;20175;-81
2024/03/01 09:37:00;;;;;;;0.90;0.70;;;;;;;;;;4998783;28;20206;-81
2024/03/01 09:39:26;;;;;;;1.07;0.83;;;;;;;;;;4997052;28;20211;-82
2024/03/01 09:41:52;;;;;;;1.30;0.90;;;;;;;;;;4999832;28;20838;-82
2024/03/01 09:44:41;;;;;;;0.70;0.60;;;;;;;;;;5003212;28;20258;-82
2024/03/01 09:47:29;;;;;;;2.50;0.90;;;;;;;;;;4996185;28;20506;-82
2024/03/01 09:50:06;;;;;;;1.15;0.80;;;;;;;;;;4996171;28;20187;-82
2024/03/01 09:52:38;;;;;;;1.33;0.80;;;;;;;;;;5002059;28;20232;-82
2024/03/01 09:55:13;;;;;;;1.02;0.55;;;;;;;;;;5003347;28;20234;-82
2024/03/01 09:57:58;;;;;;;1.02;0.65;;;;;;;;;;4992167;28;20598;-83
2024/03/01 10:00:35;;;;;;;2.03;0.90;;;;;;;;;;4997486;28;20548;-83
2024/03/01 10:03:03;;;;;;;1.93;0.87;;;;;;;;;;4997137;28;20475;-82
2024/03/01 10:05:31;;;;;;;0.70;0.60;;;;;;;;;;4998058;28;20821;-83
2024/03/01 10:08:06;;;;;;;1.60;1.10;;;;;;;;;;4995169;28;20950;-83
2024/03/01 10:10:38;;;;;;;2.40;0.70;;;;;;;;;;4990449;28;20434;-82
2024/03/01 10:13:09;;;;;;;1.98;1.35;;;;;;;;;;4997176;28;20541;-82
2024/03/01 10:15:43;;;;;;;2.58;0.80;;;;;;;;;;4996937;28;20226;-82
2024/03/01 10:18:27;;;;;;;3.05;0.70;;;;;;;;;;4996891;28;20203;-82
2024/03/01 10:20:59;;;;;;;2.28;0.60;;;;;;;;;;5000954;28;20187;-81
2024/03/01 10:23:44;;;;;;;0.95;0.70;;;;;;;;;;4998174;28;20241;-82
2024/03/01 10:26:19;;;;;;;1.60;0.60;;;;;;;;;;5002332;28;20191;-83
2024/03/01 10:29:00;;;;;;;1.20;0.50;;;;;;;;;;4996823;28;20659;-84
2024/03/01 10:31:26;;;;;;;1.48;0.70;;;;;;;;;;4999416;28;20759;-83
2024/03/01 10:34:06;;;;;;;0.70;0.50;;;;;;;;;;4995617;28;20222;-83
2024/03/01 10:36:45;;;;;;;2.00;0.95;;;;;;;;;;4989906;28;20431;-84
2024/03/01 10:39:20;;;;;;;0.80;0.68;;;;;;;;;;4999107;28;20572;-83
2024/03/01 10:42:05;;;;;;;0.73;0.68;;;;;;;;;;4997345;28;20210;-84
2024/03/01 10:44:43;;;;;;;0.80;0.60;;;;;;;;;;4995421;28;20579;-84
2024/03/01 10:47:13;;;;;;;0.95;0.60;;;;;;;;;;4993936;28;20188;-80
2024/03/01 10:49:56;;;;;;;0.70;0.50;;;;;;;;;;5004889;28;20180;-83
2024/03/01 10:52:24;;;;;;;0.90;0.70;;;;;;;;;;4997023;28;20679;-83
2024/03/01 10:54:54;;;;;;;2.10;0.60;;;;;;;;;;4999799;28;20207;-83
2024/03/01 10:57:21;;;;;;;1.48;0.60;;;;;;;;;;4996631;28;20232;-83
2024/03/01 11:00:06;;;;;;;1.67;0.60;;;;;;;;;;5004701;28;20191;-83
2024/03/01 11:02:42;;;;;;;1.00;0.70;;;;;;;;;;4995162;28;20268;-83
2024/03/01 11:05:16;;;;;;;0.90;0.70;;;;;;;;;;4998061;28;20179;-83
2024/03/01 11:07:50;;;;;;;0.95;0.68;;;;;;;;;;4997730;28;20234;-86
2024/03/01 11:10:35;;;;;;;2.43;0.80;;;;;;;;;;4995425;28;20179;-85
2024/03/01 11:13:28;;;;;;;0.93;0.80;;;;;;;;;;4997994;28;20477;-83
2024/03/01 11:15:56;;;;;;;1.15;0.98;;;;;;;;;;4971179;28;20437;-83
2024/03/01 11:18:24;;;;;;;0.70;0.53;;;;;;;;;;4995531;28;20211;-83
2024/03/01 11:20:53;;;;;;;1.63;1.20;;;;;;;;;;4995888;28;20544;-84
2024/03/01 11:23:29;;;;;;;1.50;1.00;;;;;;;;;;4997081;28;20491;-83
2024/03/01 11:26:00;;;;;;;1.30;0.90;;;;;;;;;;4978428;28;20438;-83
2024/03/01 11:28:28;;;;;;;1.58;0.90;;;;;;;;;;4995659;28;20498;-86
2024/03/01 11:30:56;;;;;;;1.70;0.90;;;;;;;;;;5003278;28;20186;-83
2024/03/01 11:33:23;;;;;;;2.50;0.80;;;;;;;;;;4995376;28;20455;-86
2024/03/01 11:35:56;;;;;;;5.80;1.33;;;;;;;;;;4989026;28;20415;-85
2024/03/01 11:38:37;;;;;;;1.27;0.90;;;;;;;;;;5001208;28;20557;-84
2024/03/01 11:41:10;;;;;;;3.90;0.90;;;;;;;;;;4993309;28;20434;-85
2024/03/01 11:43:54;;;;;;;1.30;0.83;;;;;;;;;;4996929;28;20454;-86
2024/03/01 11:46:21;;;;;;;1.90;0.90;;;;;;;;;;4994646;28;20442;-87
2024/03/01 11:49:01;;;;;;;1.00;0.83;;;;;;;;;;4977592;28;20465;-86
2024/03/01 11:51:31;;;;;;;1.00;0.90;;;;;;;;;;4991600;28;20493;-86
2024/03/01 11:54:06;;;;;;;1.00;0.90;;;;;;;;;;4996942;28;20993;-85
2024/03/01 11:56:44;;;;;;;0.97;0.80;;;;;;;;;;4978206;28;20418;-86
2024/03/01 11:59:22;;;;;;;1.20;0.80;;;;;;;;;;4993007;28;20462;-86
2024/03/01 12:02:00;;;;;;;1.70;1.17;;;;;;;;;;4994583;28;20445;-84
2024/03/01 12:04:36;;;;;;;1.30;0.73;;;;;;;;;;5002098;28;20446;-86
2024/03/01 12:07:04;;;;;;;1.50;0.97;;;;;;;;;;5001329;28;20960;-82
2024/03/01 12:09:49;;;;;;;2.17;0.90;;;;;;;;;;4994121;28;20501;-83
2024/03/01 12:12:15;;;;;;;3.43;1.20;;;;;;;;;;4977221;28;20439;-80
2024/03/01 12:14:44;;;;;;;1.50;1.13;;;;;;;;;;5004249;28;20786;-84
2024/03/01 12:17:43;;;;;;;2.07;1.23;;;;;;;;;;5001409;28;20488;-85
2024/03/01 12:20:13;;;;;;;1.93;0.80;;;;;;;;;;4940829;28;20477;-84
2024/03/01 12:22:58;;;;;;;2.07;1.13;;;;;;;;;;4998785;28;20429;-83
2024/03/01 12:25:25;;;;;;;2.90;1.10;;;;;;;;;;4994849;28;20446;-84
2024/03/01 12:28:10;;;;;;;1.70;1.10;;;;;;;;;;4994511;28;20440;-85
2024/03/01 12:30:39;;;;;;;1.30;1.00;;;;;;;;;;4990533;28;20506;-83
2024/03/01 12:33:27;;;;;;;1.63;0.97;;;;;;;;;;4994639;28;20876;-85
2024/03/01 12:36:11;;;;;;;2.47;0.93;;;;;;;;;;4993310;28;20429;-83
2024/03/01 12:38:39;;;;;;;2.00;1.00;;;;;;;;;;4994185;28;20466;-86
2024/03/01 12:41:24;;;;;;;2.13;1.10;;;;;;;;;;4995182;28;20788;-85
2024/03/01 12:43:54;;;;;;;1.40;1.17;;;;;;;;;;4993501;28;20439;-85
2024/03/01 12:46:38;;;;;;;2.07;1.03;;;;;;;;;;4993896;28;20441;-84
2024/03/01 12:49:17;;;;;;;1.40;1.10;;;;;;;;;;4993651;28;20454;-83
2024/03/01 12:51:50;;;;;;;1.50;1.30;;;;;;;;;;4997944;28;20414;-85
2024/03/01 12:54:18;;;;;;;1.37;1.27;;;;;;;;;;4993551;28;20400;-85
2024/03/01 12:56:44;;;;;;;1.47;1.13;;;;;;;;;;4997419;28;20427;-84
2024/03/01 12:59:36;;;;;;;1.57;1.17;;;;;;;;;;4990726;28;20912;-83
2024/03/01 13:02:05;;;;;;;1.53;1.13;;;;;;;;;;4996823;28;20486;-85
2024/03/01 13:04:42;;;;;;;2.07;1.00;;;;;;;;;;4997722;28;20441;-85
2024/03/01 13:07:08;;;;;;;1.47;1.20;;;;;;;;;;4981508;28;20481;-86
2024/03/01 13:09:39;;;;;;;1.50;1.00;;;;;;;;;;5001911;28;20441;-83
2024/03/01 13:12:09;;;;;;;1.20;1.10;;;;;;;;;;4997809;28;20434;-83
2024/03/01 13:14:38;;;;;;;1.53;1.20;;;;;;;;;;4997692;28;20514;-83
2024/03/01 13:17:31;;;;;;;2.20;1.20;;;;;;;;;;4997978;28;20427;-84
2024/03/01 13:20:17;;;;;;;1.90;0.73;;;;;;;;;;4993546;28;20800;-85
2024/03/01 13:22:44;;;;;;;2.80;0.90;;;;;;;;;;4995235;28;20510;-86
2024/03/01 13:25:28;;;;;;;2.73;1.30;;;;;;;;;;4998530;28;20450;-86
2024/03/01 13:28:14;;;;;;;2.43;1.00;;;;;;;;;;4998537;28;20840;-86
2024/03/01 13:30:41;;;;;;;1.50;1.00;;;;;;;;;;4991572;28;20828;-87
2024/03/01 13:33:16;;;;;;;1.43;0.80;;;;;;;;;;4996497;28;22779;-86
2024/03/01 13:35:45;;;;;;;1.13;0.73;;;;;;;;;;4996612;28;20426;-87
2024/03/01 13:38:18;;;;;;;1.43;0.80;;;;;;;;;;4989227;28;20473;-83
2024/03/01 13:40:50;;;;;;;3.33;0.90;;;;;;;;;;4994514;28;20445;-87
2024/03/01 13:43:31;;;;;;;1.93;0.80;;;;;;;;;;4997821;28;20450;-86
2024/03/01 13:46:12;;;;;;;2.30;1.03;;;;;;;;;;4994503;28;20430;-85
2024/03/01 13:48:38;;;;;;;2.10;0.93;;;;;;;;;;5001178;28;20430;-85
2024/03/01 13:51:05;;;;;;;1.17;0.80;;;;;;;;;;5001557;28;20474;-82
2024/03/01 13:53:32;;;;;;;4.50;1.03;;;;;;;;;;5003111;28;20427;-83
2024/03/01 13:56:00;;;;;;;1.77;0.90;;;;;;;;;;4999254;28;20437;-82
2024/03/01 13:58:34;;;;;;;2.93;1.00;;;;;;;;;;4979392;28;20474;-81
2024/03/01 14:01:02;;;;;;;1.27;0.80;;;;;;;;;;4995562;28;20426;-81
2024/03/01 14:03:28;;;;;;;1.77;0.77;;;;;;;;;;5006062;28;20447;-83
2024/03/01 14:05:57;;;;;;;1.10;0.70;;;;;;;;;;4999912;28;20434;-82
2024/03/01 14:08:24;;;;;;;1.77;0.90;;;;;;;;;;5000886;28;20442;-82
2024/03/01 14:10:52;;;;;;;3.53;0.93;;;;;;;;;;5004030;28;20415;-83
2024/03/01 14:13:31;;;;;;;1.93;0.70;;;;;;;;;;5005329;28;20422;-83
2024/03/01 14:16:05;;;;;;;1.20;0.73;;;;;;;;;;5004437;28;20430;-82
2024/03/01 14:18:31;;;;;;;1.20;0.70;;;;;;;;;;4999297;28;20473;-83
2024/03/01 14:20:58;;;;;;;0.90;0.70;;;;;;;;;;5001719;28;20993;-82
2024/03/01 14:23:26;;;;;;;1.00;0.80;;;;;;;;;;4995524;28;20202;-82
2024/03/01 14:25:52;;;;;;;2.00;0.70;;;;;;;;;;4999114;28;20835;-83
2024/03/01 14:28:18;;;;;;;2.13;1.10;;;;;;;;;;4998269;28;20919;-83
2024/03/01 14:30:45;;;;;;;2.70;0.82;;;;;;;;;;5004890;28;20826;-83
2024/03/01 14:33:12;;;;;;;1.77;0.80;;;;;;;;;;5002162;28;20179;-82
2024/03/01 14:35:39;;;;;;;1.33;1.13;;;;;;;;;;4997765;28;20837;-81
2024/03/01 14:38:20;;;;;;;1.60;0.70;;;;;;;;;;5001691;28;20965;-81
2024/03/01 14:40:56;;;;;;;2.10;0.80;;;;;;;;;;4993494;28;20406;-81
2024/03/01 14:43:22;;;;;;;1.53;1.00;;;;;;;;;;5004566;28;20492;-79
2024/03/01 14:45:52;;;;;;;1.37;0.80;;;;;;;;;;5003854;28;20428;-81
2024/03/01 14:48:28;;;;;;;2.40;0.97;;;;;;;;;;4997614;28;20433;-80